createdAt,value
2017-10-22T00:00:07.426Z,5.10
2017-10-22T00:02:35.780Z,4.50
2017-10-22T00:05:04.212Z,4.93
2017-10-22T00:07:32.651Z,5.10
2017-10-22T00:10:01.744Z,4.70
2017-10-22T00:12:30.364Z,4.90
2017-10-22T00:14:58.648Z,4.43
2017-10-22T00:17:26.988Z,4.30
2017-10-22T00:19:55.465Z,4.77
2017-10-22T00:22:23.960Z,4.33
2017-10-22T00:24:52.233Z,4.57
2017-10-22T00:27:20.639Z,3.70
2017-10-22T00:29:49.208Z,4.50
2017-10-22T00:32:17.608Z,4.30
2017-10-22T00:34:46.018Z,4.60
2017-10-22T00:37:14.719Z,3.93
2017-10-22T00:39:43.119Z,3.97
2017-10-22T00:42:11.523Z,4.80
2017-10-22T00:44:40.468Z,4.70
2017-10-22T00:47:08.895Z,4.23
2017-10-22T00:49:37.486Z,3.60
2017-10-22T00:52:05.824Z,3.90
2017-10-22T00:54:34.203Z,4.60
2017-10-22T00:57:02.527Z,4.33
2017-10-22T00:59:31.213Z,3.90
2017-10-22T01:01:59.593Z,4.50
2017-10-22T01:04:28.202Z,4.37
2017-10-22T01:06:56.654Z,4.30
2017-10-22T01:09:25.000Z,4.13
2017-10-22T01:11:53.311Z,4.53
2017-10-22T01:14:21.644Z,4.20
2017-10-22T01:16:50.135Z,4.10
2017-10-22T01:19:18.625Z,4.23
2017-10-22T01:21:47.248Z,4.37
2017-10-22T01:24:15.701Z,3.50
2017-10-22T01:26:44.002Z,4.50
2017-10-22T01:29:12.463Z,4.30
2017-10-22T01:31:40.770Z,4.30
2017-10-22T01:34:09.050Z,4.27
2017-10-22T01:36:37.376Z,4.80
2017-10-22T01:39:06.184Z,4.03
2017-10-22T01:41:34.541Z,4.27
2017-10-22T01:44:02.837Z,4.43
2017-10-22T01:46:31.871Z,4.60
2017-10-22T01:49:00.158Z,4.63
2017-10-22T01:51:28.615Z,4.50
2017-10-22T01:53:57.205Z,4.03
2017-10-22T01:56:25.556Z,4.13
2017-10-22T01:58:54.396Z,3.83
2017-10-22T02:01:22.863Z,3.93
2017-10-22T02:03:51.186Z,3.87
2017-10-22T02:06:19.515Z,3.90
2017-10-22T02:08:47.980Z,3.80
2017-10-22T02:11:16.346Z,4.20
2017-10-22T02:13:44.644Z,4.00
2017-10-22T02:16:12.964Z,3.90
2017-10-22T02:18:41.452Z,4.23
2017-10-22T02:21:09.759Z,4.30
2017-10-22T02:23:38.156Z,4.00
2017-10-22T02:26:06.488Z,4.03
2017-10-22T02:28:34.808Z,3.87
2017-10-22T02:31:03.123Z,4.43
2017-10-22T02:33:31.572Z,3.83
2017-10-22T02:35:59.864Z,3.90
2017-10-22T02:38:28.174Z,4.20
2017-10-22T02:40:56.724Z,4.07
2017-10-22T02:43:25.091Z,4.50
2017-10-22T02:45:53.412Z,3.83
2017-10-22T02:48:21.847Z,4.00
2017-10-22T02:50:50.155Z,4.03
2017-10-22T02:53:18.580Z,4.20
2017-10-22T02:55:47.120Z,3.93
2017-10-22T02:58:15.404Z,4.40
2017-10-22T03:00:43.749Z,4.20
2017-10-22T03:03:12.104Z,4.27
2017-10-22T03:05:40.460Z,3.90
2017-10-22T03:08:08.840Z,3.80
2017-10-22T03:10:37.355Z,3.60
2017-10-22T03:13:05.643Z,3.83
2017-10-22T03:15:33.939Z,3.77
2017-10-22T03:18:02.384Z,3.83
2017-10-22T03:20:30.684Z,3.93
2017-10-22T03:22:59.158Z,4.00
2017-10-22T03:25:27.709Z,3.80
2017-10-22T03:27:59.128Z,3.60
2017-10-22T03:30:27.458Z,3.90
2017-10-22T03:32:55.733Z,3.97
2017-10-22T03:35:24.100Z,3.90
2017-10-22T03:37:52.449Z,3.83
2017-10-22T03:40:20.832Z,4.57
2017-10-22T03:42:49.340Z,4.10
2017-10-22T03:45:17.873Z,3.80
2017-10-22T03:47:46.228Z,3.83
2017-10-22T03:50:14.552Z,3.87
2017-10-22T03:52:43.138Z,3.80
2017-10-22T03:55:11.512Z,3.80
2017-10-22T03:57:39.798Z,4.20
2017-10-22T04:00:08.696Z,3.67
2017-10-22T04:02:37.188Z,3.53
2017-10-22T04:05:06.561Z,3.73
2017-10-22T04:07:34.821Z,4.20
2017-10-22T04:10:03.181Z,3.97
2017-10-22T04:12:31.491Z,4.03
2017-10-22T04:14:59.796Z,4.50
2017-10-22T04:17:28.299Z,3.30
2017-10-22T04:19:56.668Z,3.43
2017-10-22T04:22:25.004Z,3.43
2017-10-22T04:24:53.443Z,4.10
2017-10-22T04:27:21.784Z,3.50
2017-10-22T04:29:50.140Z,3.50
2017-10-22T04:32:18.431Z,3.40
2017-10-22T04:34:46.748Z,3.70
2017-10-22T04:37:15.104Z,3.63
2017-10-22T04:39:43.380Z,4.23
2017-10-22T04:42:11.673Z,3.70
2017-10-22T04:44:40.016Z,3.40
2017-10-22T04:47:09.404Z,3.27
2017-10-22T04:49:37.769Z,3.70
2017-10-22T04:52:06.075Z,3.27
2017-10-22T04:54:34.467Z,3.30
2017-10-22T04:57:02.875Z,3.40
2017-10-22T04:59:31.224Z,3.50
2017-10-22T05:01:59.534Z,3.60
2017-10-22T05:04:28.003Z,3.80
2017-10-22T05:06:56.301Z,3.50
2017-10-22T05:09:24.713Z,3.30
2017-10-22T05:11:53.144Z,3.57
2017-10-22T05:14:21.562Z,3.20
2017-10-22T05:16:50.124Z,3.33
2017-10-22T05:19:18.467Z,3.50
2017-10-22T05:21:46.763Z,2.83
2017-10-22T05:24:15.066Z,3.53
2017-10-22T05:26:43.363Z,3.10
2017-10-22T05:29:11.769Z,3.17
2017-10-22T05:31:40.341Z,3.20
2017-10-22T05:34:09.124Z,2.80
2017-10-22T05:36:37.552Z,3.53
2017-10-22T05:39:05.896Z,3.30
2017-10-22T05:41:34.195Z,2.90
2017-10-22T05:44:02.474Z,3.00
2017-10-22T05:46:30.923Z,3.40
2017-10-22T05:48:59.420Z,3.47
2017-10-22T05:51:27.915Z,3.10
2017-10-22T05:53:56.284Z,3.20
2017-10-22T05:56:24.675Z,3.53
2017-10-22T05:58:53.115Z,3.70
2017-10-22T06:01:21.544Z,5.10
2017-10-22T06:03:49.813Z,5.10
2017-10-22T06:06:18.128Z,4.80
2017-10-22T06:08:46.431Z,4.50
2017-10-22T06:11:14.783Z,4.20
2017-10-22T06:13:43.108Z,5.03
2017-10-22T06:16:11.655Z,4.23
2017-10-22T06:18:39.959Z,5.27
2017-10-22T06:21:08.285Z,4.67
2017-10-22T06:23:36.844Z,5.13
2017-10-22T06:26:05.335Z,4.60
2017-10-22T06:28:33.633Z,4.63
2017-10-22T06:31:01.965Z,5.87
2017-10-22T06:33:30.276Z,5.23
2017-10-22T06:35:58.579Z,6.30
2017-10-22T06:38:27.700Z,5.13
2017-10-22T06:40:56.020Z,7.03
2017-10-22T06:43:24.347Z,7.00
2017-10-22T06:45:52.814Z,6.23
2017-10-22T06:48:21.248Z,7.90
2017-10-22T06:50:49.599Z,7.27
2017-10-22T06:53:18.229Z,6.80
2017-10-22T06:55:46.560Z,5.97
2017-10-22T06:58:14.921Z,5.93
2017-10-22T07:00:43.862Z,6.40
2017-10-22T07:03:12.184Z,7.20
2017-10-22T07:05:40.931Z,6.60
2017-10-22T07:08:09.432Z,6.67
2017-10-22T07:10:37.863Z,6.73
2017-10-22T07:13:05.234Z,7.90
2017-10-22T07:15:33.641Z,6.67
2017-10-22T07:18:02.007Z,6.30
2017-10-22T07:20:30.307Z,6.10
2017-10-22T07:22:58.604Z,7.03
2017-10-22T07:25:26.955Z,5.80
2017-10-22T07:27:55.384Z,5.37
2017-10-22T07:30:24.004Z,5.33
2017-10-22T07:32:52.296Z,4.90
2017-10-22T07:35:20.608Z,4.93
2017-10-22T07:37:49.027Z,4.80
2017-10-22T07:40:17.479Z,4.23
2017-10-22T07:42:45.936Z,4.53
2017-10-22T07:45:14.787Z,5.20
2017-10-22T07:47:43.130Z,5.17
2017-10-22T07:50:11.649Z,4.67
2017-10-22T07:52:40.049Z,4.90
2017-10-22T07:55:08.357Z,4.73
2017-10-22T07:57:36.898Z,5.67
2017-10-22T08:00:05.236Z,4.67
2017-10-22T08:02:33.574Z,4.90
2017-10-22T08:05:01.851Z,4.83
2017-10-22T08:07:30.788Z,4.00
2017-10-22T08:09:59.069Z,3.97
2017-10-22T08:12:27.458Z,5.20
2017-10-22T08:14:56.135Z,5.63
2017-10-22T08:17:24.544Z,4.40
2017-10-22T08:19:53.087Z,4.87
2017-10-22T08:22:21.610Z,4.40
2017-10-22T08:24:49.924Z,3.80
2017-10-22T08:27:18.232Z,4.60
2017-10-22T08:29:46.524Z,3.80
2017-10-22T08:32:14.976Z,4.80
2017-10-22T08:34:43.415Z,5.03
2017-10-22T08:37:11.776Z,3.97
2017-10-22T08:39:40.131Z,4.40
2017-10-22T08:42:08.465Z,4.23
2017-10-22T08:44:36.833Z,4.37
2017-10-22T08:47:05.177Z,4.60
2017-10-22T08:49:33.479Z,3.77
2017-10-22T08:52:01.943Z,3.83
2017-10-22T08:54:30.285Z,3.70
2017-10-22T08:56:59.020Z,3.27
2017-10-22T08:59:27.314Z,3.30
2017-10-22T09:01:56.625Z,3.33
2017-10-22T09:04:25.315Z,3.30
2017-10-22T09:06:53.715Z,3.10
2017-10-22T09:09:22.007Z,3.87
2017-10-22T09:11:50.332Z,3.47
2017-10-22T09:14:18.622Z,3.30
2017-10-22T09:16:47.022Z,3.00
2017-10-22T09:19:15.492Z,3.87
2017-10-22T09:21:43.846Z,3.20
2017-10-22T09:24:12.107Z,3.40
2017-10-22T09:26:40.404Z,3.00
2017-10-22T09:29:09.317Z,3.60
2017-10-22T09:31:37.762Z,3.80
2017-10-22T09:34:06.392Z,3.23
2017-10-22T09:36:35.023Z,3.07
2017-10-22T09:39:05.027Z,2.47
2017-10-22T09:41:33.515Z,3.10
2017-10-22T09:44:01.820Z,3.30
2017-10-22T09:46:30.327Z,2.63
2017-10-22T09:48:59.235Z,2.97
2017-10-22T09:51:27.607Z,2.70
2017-10-22T09:53:55.912Z,2.90
2017-10-22T09:56:24.285Z,2.97
2017-10-22T09:58:52.615Z,3.33
2017-10-22T10:01:20.927Z,2.40
2017-10-22T10:03:49.259Z,2.37
2017-10-22T10:06:17.698Z,2.30
2017-10-22T10:08:46.728Z,2.90
2017-10-22T10:11:15.146Z,2.97
2017-10-22T10:13:43.428Z,2.80
2017-10-22T10:16:11.824Z,2.47
2017-10-22T10:18:40.396Z,2.20
2017-10-22T10:21:09.025Z,2.53
2017-10-22T10:23:37.529Z,2.60
2017-10-22T10:26:06.196Z,2.60
2017-10-22T10:28:34.528Z,2.23
2017-10-22T10:31:02.988Z,2.63
2017-10-22T10:33:31.304Z,2.43
2017-10-22T10:35:59.991Z,2.60
2017-10-22T10:38:28.356Z,2.60
2017-10-22T10:40:56.651Z,2.37
2017-10-22T10:43:25.059Z,2.90
2017-10-22T10:45:53.378Z,3.00
2017-10-22T10:48:21.647Z,2.20
2017-10-22T10:50:50.044Z,3.20
2017-10-22T10:53:19.199Z,2.40
2017-10-22T10:55:47.722Z,2.33
2017-10-22T10:58:16.072Z,3.43
2017-10-22T11:00:44.652Z,3.20
2017-10-22T11:03:13.149Z,2.60
2017-10-22T11:05:42.017Z,3.00
2017-10-22T11:08:10.464Z,2.93
2017-10-22T11:10:39.007Z,2.80
2017-10-22T11:13:07.456Z,2.57
2017-10-22T11:15:35.955Z,2.60
2017-10-22T11:18:05.132Z,2.83
2017-10-22T11:20:33.740Z,2.60
2017-10-22T11:23:02.507Z,2.67
2017-10-22T11:25:30.906Z,2.90
2017-10-22T11:27:59.329Z,2.60
2017-10-22T11:30:28.255Z,2.50
2017-10-22T11:32:56.719Z,2.40
2017-10-22T11:35:25.118Z,2.50
2017-10-22T11:37:53.432Z,2.53
2017-10-22T11:40:21.835Z,2.33
2017-10-22T11:42:50.231Z,2.53
2017-10-22T11:45:18.880Z,2.57
2017-10-22T11:47:47.209Z,3.10
2017-10-22T11:50:15.643Z,2.60
2017-10-22T11:52:43.951Z,2.20
2017-10-22T11:55:12.492Z,2.90
2017-10-22T11:57:41.168Z,2.30
2017-10-22T12:00:09.894Z,2.40
2017-10-22T12:02:38.389Z,2.37
2017-10-22T12:05:07.292Z,2.10
2017-10-22T12:07:35.780Z,2.73
2017-10-22T12:10:04.114Z,3.67
2017-10-22T12:12:32.646Z,4.10
2017-10-22T12:15:01.125Z,5.20
2017-10-22T12:17:29.811Z,4.97
2017-10-22T12:19:58.212Z,4.80
2017-10-22T12:22:26.559Z,5.10
2017-10-22T12:24:55.862Z,4.30
2017-10-22T12:27:24.250Z,3.67
2017-10-22T12:29:52.548Z,4.30
2017-10-22T12:32:20.920Z,3.93
2017-10-22T12:34:49.367Z,4.00
2017-10-22T12:37:17.875Z,3.67
2017-10-22T12:39:46.181Z,3.50
2017-10-22T12:42:14.658Z,4.07
2017-10-22T12:44:42.961Z,3.80
2017-10-22T12:47:11.416Z,3.43
2017-10-22T12:49:40.033Z,3.73
2017-10-22T12:52:09.320Z,3.60
2017-10-22T12:54:38.559Z,3.43
2017-10-22T12:57:06.903Z,3.27
2017-10-22T12:59:35.261Z,3.00
2017-10-22T13:02:03.661Z,3.83
2017-10-22T13:04:32.388Z,3.57
2017-10-22T13:07:01.006Z,2.97
2017-10-22T13:09:30.415Z,3.10
2017-10-22T13:12:00.380Z,3.00
2017-10-22T13:14:29.860Z,2.70
2017-10-22T13:16:58.604Z,3.03
2017-10-22T13:19:27.844Z,3.37
2017-10-22T13:21:57.005Z,3.20
2017-10-22T13:24:25.571Z,3.00
2017-10-22T13:26:54.028Z,2.70
2017-10-22T13:29:22.387Z,2.80
2017-10-22T13:31:50.718Z,3.10
2017-10-22T13:34:19.004Z,3.23
2017-10-22T13:36:48.371Z,2.30
2017-10-22T13:39:16.760Z,2.10
2017-10-22T13:41:45.671Z,2.70
2017-10-22T13:44:13.945Z,2.40
2017-10-22T13:46:42.349Z,2.60
2017-10-22T13:49:10.926Z,2.30
2017-10-22T13:51:39.352Z,2.17
2017-10-22T13:54:07.719Z,2.73
2017-10-22T13:56:38.092Z,3.10
2017-10-22T13:59:06.665Z,2.50
2017-10-22T14:01:35.135Z,2.33
2017-10-22T14:04:03.708Z,2.70
2017-10-22T14:06:32.032Z,2.70
2017-10-22T14:09:00.434Z,2.90
2017-10-22T14:11:31.051Z,2.83
2017-10-22T14:13:59.348Z,2.60
2017-10-22T14:16:27.644Z,2.70
2017-10-22T14:18:55.913Z,2.23
2017-10-22T14:21:24.212Z,3.00
2017-10-22T14:23:52.724Z,2.90
2017-10-22T14:26:21.062Z,2.40
2017-10-22T14:28:49.405Z,2.97
2017-10-22T14:31:17.740Z,3.03
2017-10-22T14:33:46.017Z,2.93
2017-10-22T14:36:14.527Z,2.50
2017-10-22T14:38:42.873Z,2.50
2017-10-22T14:41:11.215Z,2.90
2017-10-22T14:43:39.856Z,3.50
2017-10-22T14:46:08.192Z,2.47
2017-10-22T14:48:36.471Z,3.00
2017-10-22T14:51:04.771Z,2.83
2017-10-22T14:53:33.099Z,2.83
2017-10-22T14:56:01.540Z,3.20
2017-10-22T14:58:29.924Z,2.40
2017-10-22T15:00:58.422Z,3.30
2017-10-22T15:03:26.787Z,2.80
2017-10-22T15:05:55.283Z,3.50
2017-10-22T15:08:23.556Z,3.23
2017-10-22T15:10:51.865Z,3.00
2017-10-22T15:13:20.928Z,3.40
2017-10-22T15:15:50.667Z,3.13
2017-10-22T15:18:19.184Z,3.83
2017-10-22T15:20:47.497Z,4.20
2017-10-22T15:23:15.800Z,3.30
2017-10-22T15:25:44.121Z,4.47
2017-10-22T15:28:12.454Z,3.97
2017-10-22T15:30:41.056Z,4.17
2017-10-22T15:33:09.483Z,4.33
2017-10-22T15:35:37.905Z,4.47
2017-10-22T15:38:06.206Z,4.60
2017-10-22T15:40:34.508Z,4.37
2017-10-22T15:43:02.809Z,5.40
2017-10-22T15:45:31.220Z,3.57
2017-10-22T15:47:59.541Z,3.60
2017-10-22T15:50:27.888Z,4.27
2017-10-22T15:52:56.308Z,4.33
2017-10-22T15:55:24.636Z,4.30
2017-10-22T15:57:52.967Z,4.40
2017-10-22T16:00:21.297Z,3.87
2017-10-22T16:02:49.722Z,3.90
2017-10-22T16:05:18.318Z,4.30
2017-10-22T16:07:47.416Z,4.80
2017-10-22T16:10:15.892Z,5.07
2017-10-22T16:12:44.267Z,4.80
2017-10-22T16:15:12.580Z,4.07
2017-10-22T16:17:40.977Z,4.30
2017-10-22T16:20:09.347Z,4.37
2017-10-22T16:22:37.777Z,4.90
2017-10-22T16:25:09.317Z,5.27
2017-10-22T16:27:37.826Z,3.40
2017-10-22T16:30:06.184Z,4.90
2017-10-22T16:32:35.083Z,4.00
2017-10-22T16:35:03.513Z,4.23
2017-10-22T16:37:32.024Z,3.93
2017-10-22T16:40:00.316Z,5.00
2017-10-22T16:42:28.988Z,4.53
2017-10-22T16:44:57.344Z,5.30
2017-10-22T16:47:25.725Z,5.07
2017-10-22T16:49:54.043Z,5.00
2017-10-22T16:52:22.465Z,5.27
2017-10-22T16:54:51.701Z,4.97
2017-10-22T16:57:20.016Z,4.80
2017-10-22T16:59:48.480Z,5.57
2017-10-22T17:02:16.931Z,5.30
2017-10-22T17:04:45.451Z,5.40
2017-10-22T17:07:13.820Z,4.03
2017-10-22T17:09:42.239Z,4.70
2017-10-22T17:12:10.644Z,4.63
2017-10-22T17:14:39.218Z,4.00
2017-10-22T17:17:07.601Z,5.10
2017-10-22T17:19:36.086Z,5.70
2017-10-22T17:22:04.557Z,6.50
2017-10-22T17:24:33.028Z,6.97
2017-10-22T17:27:01.383Z,6.70
2017-10-22T17:29:30.027Z,7.47
2017-10-22T17:31:58.352Z,7.37
2017-10-22T17:34:28.256Z,6.00
2017-10-22T17:36:57.251Z,5.67
2017-10-22T17:39:25.595Z,4.50
2017-10-22T17:41:54.747Z,6.60
2017-10-22T17:44:23.458Z,6.53
2017-10-22T17:46:51.903Z,5.80
2017-10-22T17:49:20.293Z,5.80
2017-10-22T17:51:48.749Z,6.60
2017-10-22T17:54:17.116Z,6.20
2017-10-22T17:56:45.624Z,5.70
2017-10-22T17:59:13.887Z,5.20
2017-10-22T18:01:42.508Z,5.33
2017-10-22T18:04:11.272Z,5.10
2017-10-22T18:06:40.413Z,4.80
2017-10-22T18:09:08.869Z,5.67
2017-10-22T18:11:38.039Z,4.87
2017-10-22T18:14:06.670Z,4.23
2017-10-22T18:16:36.051Z,5.40
2017-10-22T18:19:06.622Z,4.33
2017-10-22T18:21:35.167Z,4.33
2017-10-22T18:24:03.616Z,4.20
2017-10-22T18:26:32.094Z,4.70
2017-10-22T18:29:01.740Z,3.93
2017-10-22T18:31:30.263Z,4.60
2017-10-22T18:33:58.584Z,4.50
2017-10-22T18:36:26.935Z,4.40
2017-10-22T18:38:55.527Z,4.67
2017-10-22T18:41:23.965Z,3.83
2017-10-22T18:43:52.388Z,3.83
2017-10-22T18:46:20.816Z,4.10
2017-10-22T18:48:49.095Z,4.50
2017-10-22T18:51:17.451Z,3.47
2017-10-22T18:53:45.936Z,4.63
2017-10-22T18:56:14.272Z,3.93
2017-10-22T18:58:42.637Z,4.40
2017-10-22T19:01:11.163Z,3.57
2017-10-22T19:03:39.576Z,3.50
2017-10-22T19:06:07.987Z,4.63
2017-10-22T19:08:36.352Z,4.40
2017-10-22T19:11:04.848Z,3.87
2017-10-22T19:13:33.348Z,3.50
2017-10-22T19:16:01.638Z,4.20
2017-10-22T19:18:31.043Z,3.87
2017-10-22T19:20:59.403Z,3.77
2017-10-22T19:23:27.873Z,3.80
2017-10-22T19:25:56.200Z,4.23
2017-10-22T19:28:25.156Z,3.60
2017-10-22T19:30:53.500Z,3.20
2017-10-22T19:33:21.760Z,3.80
2017-10-22T19:35:50.111Z,3.20
2017-10-22T19:38:18.403Z,3.70
2017-10-22T19:40:46.708Z,3.17
2017-10-22T19:43:14.985Z,4.47
2017-10-22T19:45:43.716Z,2.90
2017-10-22T19:48:12.256Z,3.30
2017-10-22T19:50:40.591Z,3.50
2017-10-22T19:53:08.903Z,3.37
2017-10-22T19:55:37.297Z,3.20
2017-10-22T19:58:05.595Z,3.00
2017-10-22T20:00:34.372Z,3.00
2017-10-22T20:03:02.693Z,2.87
2017-10-22T20:05:34.197Z,2.50
2017-10-22T20:08:03.037Z,4.57
2017-10-22T20:10:32.092Z,3.10
2017-10-22T20:13:00.384Z,2.70
2017-10-22T20:15:28.782Z,2.67
2017-10-22T20:17:57.168Z,2.27
2017-10-22T20:20:25.483Z,2.90
2017-10-22T20:22:53.848Z,3.13
2017-10-22T20:25:22.339Z,2.50
2017-10-22T20:27:54.910Z,2.60
2017-10-22T20:30:23.652Z,2.90
2017-10-22T20:32:52.104Z,2.60
2017-10-22T20:35:20.462Z,2.63
2017-10-22T20:37:49.742Z,2.37
2017-10-22T20:40:18.152Z,2.73
2017-10-22T20:42:46.733Z,2.53
2017-10-22T20:45:15.094Z,2.50
2017-10-22T20:47:43.712Z,2.60
2017-10-22T20:50:12.771Z,2.57
2017-10-22T20:52:41.241Z,2.43
2017-10-22T20:55:10.223Z,2.23
2017-10-22T20:57:38.501Z,2.37
2017-10-22T21:00:08.227Z,2.40
2017-10-22T21:02:36.606Z,2.30
2017-10-22T21:05:05.200Z,2.77
2017-10-22T21:07:33.785Z,2.80
2017-10-22T21:10:02.254Z,2.17
2017-10-22T21:12:30.775Z,2.83
2017-10-22T21:14:59.190Z,2.10
2017-10-22T21:17:27.856Z,2.40
2017-10-22T21:19:56.166Z,2.50
2017-10-22T21:22:24.510Z,2.50
2017-10-22T21:24:52.926Z,2.50
2017-10-22T21:27:21.263Z,2.20
2017-10-22T21:29:49.605Z,2.30
2017-10-22T21:32:18.313Z,2.60
2017-10-22T21:34:46.770Z,2.73
2017-10-22T21:37:15.264Z,1.90
2017-10-22T21:39:43.614Z,2.40
2017-10-22T21:42:11.921Z,2.33
2017-10-22T21:44:40.279Z,2.67
2017-10-22T21:47:08.612Z,2.20
2017-10-22T21:49:36.945Z,2.07
2017-10-22T21:52:05.299Z,2.40
2017-10-22T21:54:33.645Z,2.97
2017-10-22T21:57:02.067Z,2.00
2017-10-22T21:59:30.527Z,2.80
2017-10-22T22:01:58.838Z,2.07
2017-10-22T22:04:27.243Z,2.47
2017-10-22T22:06:55.543Z,1.77
2017-10-22T22:09:23.815Z,2.17
2017-10-22T22:11:52.137Z,2.00
2017-10-22T22:14:20.393Z,2.40
2017-10-22T22:16:48.711Z,2.43
2017-10-22T22:19:17.035Z,2.43
2017-10-22T22:21:45.451Z,2.03
2017-10-22T22:24:13.861Z,2.50
2017-10-22T22:26:42.240Z,2.40
2017-10-22T22:29:10.548Z,2.20
2017-10-22T22:31:38.927Z,2.20
2017-10-22T22:34:07.204Z,2.53
2017-10-22T22:36:35.640Z,2.50
2017-10-22T22:39:04.023Z,2.23
2017-10-22T22:41:32.356Z,1.70
2017-10-22T22:44:00.628Z,1.97
2017-10-22T22:46:29.040Z,2.17
2017-10-22T22:48:57.471Z,2.60
2017-10-22T22:51:25.807Z,2.47
2017-10-22T22:53:54.163Z,1.93
2017-10-22T22:56:22.470Z,1.80
2017-10-22T22:58:50.764Z,1.90
2017-10-22T23:01:19.291Z,1.93
2017-10-22T23:03:47.700Z,1.80
2017-10-22T23:06:16.064Z,2.00
2017-10-22T23:08:44.473Z,2.00
2017-10-22T23:11:12.978Z,1.90
2017-10-22T23:13:41.855Z,2.27
2017-10-22T23:16:10.181Z,2.10
2017-10-22T23:18:38.524Z,2.00
2017-10-22T23:21:07.344Z,1.87
2017-10-22T23:23:35.791Z,2.03
2017-10-22T23:26:04.105Z,2.43
2017-10-22T23:28:32.413Z,1.80
2017-10-22T23:31:00.817Z,2.20
2017-10-22T23:33:29.156Z,1.70
2017-10-22T23:35:57.721Z,2.00
2017-10-22T23:38:26.001Z,1.77
2017-10-22T23:40:54.298Z,1.97
2017-10-22T23:43:22.567Z,1.87
2017-10-22T23:45:50.932Z,1.80
2017-10-22T23:48:19.184Z,1.77
2017-10-22T23:50:47.491Z,2.03
2017-10-22T23:53:15.763Z,1.80
2017-10-22T23:55:44.069Z,1.67
2017-10-22T23:58:12.471Z,1.77
